createdAt,value
2024-04-11T00:03:35.827Z,4.07
2024-04-11T00:08:38.676Z,4.00
2024-04-11T00:13:40.762Z,3.70
2024-04-11T00:18:42.671Z,4.03
2024-04-11T00:23:48.840Z,3.80
2024-04-11T00:28:50.962Z,3.30
2024-04-11T00:33:57.110Z,3.42
2024-04-11T00:38:59.877Z,3.72
2024-04-11T00:44:01.991Z,3.42
2024-04-11T00:49:04.222Z,3.42
2024-04-11T00:54:07.005Z,3.53
2024-04-11T00:59:11.017Z,3.50
2024-04-11T01:04:13.086Z,3.75
2024-04-11T01:09:21.017Z,4.13
2024-04-11T01:14:22.936Z,3.42
2024-04-11T01:19:28.187Z,3.90
2024-04-11T01:24:30.022Z,3.88
2024-04-11T01:29:31.975Z,3.85
2024-04-11T01:34:34.104Z,3.50
2024-04-11T01:39:38.575Z,3.35
2024-04-11T01:44:40.621Z,3.17
2024-04-11T01:49:44.393Z,3.75
2024-04-11T01:54:46.248Z,3.00
2024-04-11T01:59:48.189Z,3.28
2024-04-11T02:04:50.155Z,3.38
2024-04-11T02:09:53.148Z,3.05
2024-04-11T02:14:56.765Z,3.38
2024-04-11T02:20:00.512Z,3.10
2024-04-11T02:25:02.493Z,3.00
2024-04-11T02:30:06.892Z,2.60
2024-04-11T02:35:12.150Z,2.95
2024-04-11T02:40:13.969Z,2.67
2024-04-11T02:45:19.511Z,3.53
2024-04-11T02:50:25.541Z,2.85
2024-04-11T02:55:30.259Z,2.30
2024-04-11T03:00:32.151Z,2.30
2024-04-11T03:05:36.384Z,2.67
2024-04-11T03:10:43.428Z,2.05
2024-04-11T03:15:47.176Z,2.65
2024-04-11T03:21:00.206Z,2.42
2024-04-11T03:26:02.355Z,2.40
2024-04-11T03:31:06.968Z,2.92
2024-04-11T03:36:14.616Z,2.80
2024-04-11T03:41:18.274Z,2.30
2024-04-11T03:46:22.602Z,2.45
2024-04-11T03:51:31.354Z,2.70
2024-04-11T03:56:33.491Z,2.80
2024-04-11T04:01:35.679Z,2.45
2024-04-11T04:06:37.683Z,2.72
2024-04-11T04:11:43.359Z,2.55
2024-04-11T04:16:47.910Z,2.95
2024-04-11T04:21:50.322Z,3.08
2024-04-11T04:26:53.328Z,2.63
2024-04-11T04:31:55.456Z,2.40
2024-04-11T04:36:58.450Z,3.08
2024-04-11T04:42:01.030Z,2.70
2024-04-11T04:47:05.180Z,3.03
2024-04-11T04:52:08.020Z,3.65
2024-04-11T04:57:13.524Z,3.35
2024-04-11T05:02:16.276Z,4.10
2024-04-11T05:07:21.490Z,4.40
2024-04-11T05:12:24.809Z,3.97
2024-04-11T05:17:28.039Z,4.30
2024-04-11T05:22:30.728Z,3.70
2024-04-11T05:27:39.212Z,3.38
2024-04-11T05:32:43.235Z,2.78
2024-04-11T05:37:48.623Z,2.20
2024-04-11T05:42:50.575Z,2.42
2024-04-11T05:47:53.499Z,2.83
2024-04-11T05:52:56.049Z,2.78
2024-04-11T05:57:58.230Z,2.90
2024-04-11T06:03:09.758Z,2.30
2024-04-11T06:08:12.097Z,2.35
2024-04-11T06:13:14.091Z,2.60
2024-04-11T06:18:16.666Z,2.88
2024-04-11T06:23:18.990Z,2.38
2024-04-11T06:28:21.241Z,1.70
2024-04-11T06:33:23.645Z,2.30
2024-04-11T06:38:26.111Z,2.20
2024-04-11T06:43:27.995Z,2.30
2024-04-11T06:48:30.874Z,2.00
2024-04-11T06:53:32.773Z,2.05
2024-04-11T06:58:38.346Z,2.00
2024-04-11T07:03:42.495Z,1.52
2024-04-11T07:08:45.043Z,1.92
2024-04-11T07:13:51.211Z,1.65
2024-04-11T07:18:59.399Z,1.73
2024-04-11T07:24:05.164Z,1.42
2024-04-11T07:29:10.088Z,1.55
2024-04-11T07:34:13.148Z,1.48
2024-04-11T07:39:18.414Z,1.88
2024-04-11T07:44:25.286Z,2.00
2024-04-11T07:49:28.160Z,1.38
2024-04-11T07:54:37.982Z,1.48
2024-04-11T07:59:47.915Z,1.45
2024-04-11T08:04:49.991Z,1.27
2024-04-11T08:09:57.460Z,1.50
2024-04-11T08:14:59.721Z,1.30
2024-04-11T08:20:01.649Z,1.90
2024-04-11T08:25:03.889Z,1.45
2024-04-11T08:30:07.462Z,1.30
2024-04-11T08:35:09.595Z,1.40
2024-04-11T08:40:11.745Z,1.67
2024-04-11T08:45:14.721Z,1.02
2024-04-11T08:50:17.740Z,1.25
2024-04-11T08:55:20.569Z,1.40
2024-04-11T09:00:23.342Z,1.40
2024-04-11T09:05:25.247Z,1.00
2024-04-11T09:10:27.157Z,1.33
2024-04-11T09:15:30.243Z,1.42
2024-04-11T09:20:34.399Z,1.10
2024-04-11T09:25:36.295Z,1.20
2024-04-11T09:30:40.912Z,1.33
2024-04-11T09:35:48.439Z,1.20
2024-04-11T09:40:55.110Z,1.60
2024-04-11T09:46:05.289Z,1.20
2024-04-11T09:51:11.625Z,1.45
2024-04-11T09:56:19.394Z,0.90
2024-04-11T10:01:32.425Z,1.50
2024-04-11T10:06:37.462Z,1.20
2024-04-11T10:11:46.709Z,1.13
2024-04-11T10:16:49.916Z,1.00
2024-04-11T10:21:54.250Z,1.88
2024-04-11T10:27:12.143Z,1.40
2024-04-11T10:32:15.792Z,1.50
2024-04-11T10:37:25.050Z,1.33
2024-04-11T10:42:39.409Z,1.48
2024-04-11T10:47:43.551Z,1.50
2024-04-11T10:52:48.460Z,1.60
2024-04-11T10:58:10.312Z,1.73
2024-04-11T11:03:13.163Z,1.50
2024-04-11T11:08:15.874Z,1.58
2024-04-11T11:13:17.683Z,1.50
2024-04-11T11:18:21.868Z,1.35
2024-04-11T11:23:27.786Z,1.90
2024-04-11T11:28:29.646Z,2.05
2024-04-11T11:33:32.316Z,2.03
2024-04-11T11:38:35.067Z,1.80
2024-04-11T11:43:45.301Z,1.60
2024-04-11T11:48:48.337Z,2.00
2024-04-11T11:53:51.147Z,1.90
2024-04-11T11:58:53.092Z,1.83
2024-04-11T12:03:58.156Z,1.50
2024-04-11T12:09:12.687Z,1.20
2024-04-11T12:14:23.880Z,1.70
2024-04-11T12:19:29.980Z,1.50
2024-04-11T12:24:33.235Z,1.88
2024-04-11T12:29:35.107Z,1.70
2024-04-11T12:34:38.758Z,1.52
2024-04-11T12:39:46.968Z,1.67
2024-04-11T12:44:51.171Z,1.55
2024-04-11T12:49:59.653Z,1.70
2024-04-11T12:55:02.572Z,2.03
2024-04-11T13:00:31.556Z,2.08
2024-04-11T13:05:45.809Z,2.00
2024-04-11T13:10:51.315Z,1.65
2024-04-11T13:16:01.167Z,1.25
2024-04-11T13:21:05.179Z,1.50
2024-04-11T13:26:08.656Z,1.40
2024-04-11T13:31:12.506Z,1.40
2024-04-11T13:36:14.428Z,1.30
2024-04-11T13:41:34.816Z,1.02
2024-04-11T13:46:37.081Z,1.20
2024-04-11T13:51:46.235Z,1.02
2024-04-11T13:57:01.104Z,1.08
2024-04-11T14:02:10.958Z,1.33
2024-04-11T14:07:12.901Z,1.30
2024-04-11T14:12:18.242Z,1.20
2024-04-11T14:17:28.515Z,1.02
2024-04-11T14:22:31.456Z,1.20
2024-04-11T14:27:33.306Z,1.10
2024-04-11T14:32:53.918Z,1.00
2024-04-11T14:43:02.305Z,1.10
2024-04-11T14:48:04.300Z,1.00
2024-04-11T14:53:07.475Z,0.85
2024-04-11T14:58:09.341Z,1.00
2024-04-11T15:03:17.166Z,2.05
2024-04-11T15:08:24.348Z,1.55
2024-04-11T15:13:26.271Z,1.35
2024-04-11T15:18:29.720Z,1.27
2024-04-11T15:23:31.700Z,1.42
2024-04-11T15:28:34.192Z,1.40
2024-04-11T15:33:36.058Z,1.10
2024-04-11T15:38:40.113Z,1.15
2024-04-11T15:43:43.741Z,1.38
2024-04-11T15:48:53.280Z,1.08
2024-04-11T15:54:03.018Z,1.17
2024-04-11T15:59:10.911Z,1.17
2024-04-11T16:04:17.854Z,1.30
2024-04-11T16:09:37.326Z,1.20
2024-04-11T16:14:44.876Z,1.25
2024-04-11T16:19:47.450Z,2.00
2024-04-11T16:24:53.320Z,1.42
2024-04-11T16:30:01.850Z,1.05
2024-04-11T16:35:04.977Z,1.10
2024-04-11T16:40:07.896Z,1.00
2024-04-11T16:45:09.819Z,0.93
2024-04-11T16:50:11.707Z,1.30
2024-04-11T16:55:28.019Z,1.30
2024-04-11T17:00:32.151Z,1.10
2024-04-11T17:05:42.057Z,1.20
2024-04-11T17:10:45.475Z,1.10
2024-04-11T17:16:16.141Z,1.13
2024-04-11T17:21:21.190Z,1.33
2024-04-11T17:26:23.005Z,1.90
2024-04-11T17:31:34.437Z,1.20
2024-04-11T17:36:37.798Z,1.33
2024-04-11T17:41:40.436Z,1.35
2024-04-11T17:47:02.174Z,1.08
2024-04-11T17:52:24.334Z,1.35
2024-04-11T17:57:26.160Z,1.17
2024-04-11T18:02:30.063Z,1.45
2024-04-11T18:07:33.607Z,1.10
2024-04-11T18:12:37.143Z,1.25
2024-04-11T18:17:39.540Z,1.00
2024-04-11T18:22:50.210Z,1.10
2024-04-11T18:27:53.229Z,1.40
2024-04-11T18:32:55.871Z,1.33
2024-04-11T18:38:01.638Z,1.55
2024-04-11T18:43:21.861Z,1.45
2024-04-11T18:48:39.100Z,1.70
2024-04-11T18:53:43.652Z,1.40
2024-04-11T18:58:46.842Z,1.27
2024-04-11T19:03:49.216Z,1.48
2024-04-11T19:08:51.462Z,1.73
2024-04-11T19:13:58.211Z,1.45
2024-04-11T19:19:00.798Z,1.73
2024-04-11T19:24:13.536Z,1.23
2024-04-11T19:29:22.875Z,1.55
2024-04-11T19:34:28.209Z,1.38
2024-04-11T19:39:30.287Z,1.25
2024-04-11T19:44:32.930Z,1.20
2024-04-11T19:49:40.007Z,1.17
2024-04-11T19:54:49.096Z,1.80
2024-04-11T19:59:52.932Z,1.30
2024-04-11T20:05:00.640Z,1.95
2024-04-11T20:10:04.830Z,1.90
2024-04-11T20:15:25.791Z,1.55
2024-04-11T20:25:34.500Z,1.40
2024-04-11T20:30:38.086Z,6.45
2024-04-11T20:35:45.299Z,2.13
2024-04-11T20:40:47.630Z,2.30
2024-04-11T20:45:51.575Z,1.63
2024-04-11T20:51:12.113Z,1.45
2024-04-11T20:56:32.691Z,1.23
2024-04-11T21:01:53.012Z,1.58
2024-04-11T21:07:13.302Z,1.33
2024-04-11T21:12:33.789Z,1.60
2024-04-11T21:17:54.247Z,1.52
2024-04-11T21:23:14.611Z,1.50
2024-04-11T21:28:35.010Z,1.60
2024-04-11T21:33:39.848Z,1.88
2024-04-11T21:38:42.079Z,2.33
2024-04-11T21:43:44.669Z,1.77
2024-04-11T21:48:50.419Z,1.80
2024-04-11T21:54:00.126Z,1.60
2024-04-11T21:59:02.219Z,1.88
2024-04-11T22:04:08.592Z,1.48
2024-04-11T22:09:17.314Z,1.60
2024-04-11T22:14:41.904Z,1.73
2024-04-11T22:19:44.051Z,1.80
2024-04-11T22:24:55.972Z,1.20
2024-04-11T22:30:07.826Z,1.33
2024-04-11T22:35:12.629Z,2.00
2024-04-11T22:40:20.906Z,1.50
2024-04-11T22:45:27.387Z,1.67
2024-04-11T22:50:29.368Z,1.63
2024-04-11T22:55:31.202Z,1.75
2024-04-11T23:00:48.794Z,1.67
2024-04-11T23:05:55.295Z,1.45
2024-04-11T23:11:01.371Z,1.50
2024-04-11T23:16:06.761Z,1.85
2024-04-11T23:21:12.653Z,1.83
2024-04-11T23:26:16.140Z,1.75
2024-04-11T23:31:21.028Z,1.60
2024-04-11T23:36:25.924Z,2.00
2024-04-11T23:41:34.621Z,2.72
2024-04-11T23:46:41.947Z,2.58
2024-04-11T23:51:50.963Z,2.50
2024-04-11T23:57:04.397Z,2.38
